sensor_id;sensor_type;location;lat;lon;timestamp;temperature;humidity
11812;DHT22;5963;50.184;9.162;2022-11-20T00:00:07;1.30;99.90
11812;DHT22;5963;50.184;9.162;2022-11-20T00:02:37;1.30;99.90
11812;DHT22;5963;50.184;9.162;2022-11-20T00:05:08;1.30;99.90
11812;DHT22;5963;50.184;9.162;2022-11-20T00:07:39;1.20;99.90
11812;DHT22;5963;50.184;9.162;2022-11-20T00:10:09;1.10;99.90
11812;DHT22;5963;50.184;9.162;2022-11-20T00:12:39;1.10;99.90
11812;DHT22;5963;50.184;9.162;2022-11-20T00:15:11;1.10;99.90
11812;DHT22;5963;50.184;9.162;2022-11-20T00:17:41;1.10;99.90
11812;DHT22;5963;50.184;9.162;2022-11-20T00:20:13;1.10;99.90
11812;DHT22;5963;50.184;9.162;2022-11-20T00:22:44;1.10;99.90
11812;DHT22;5963;50.184;9.162;2022-11-20T00:25:14;1.10;99.90
11812;DHT22;5963;50.184;9.162;2022-11-20T00:27:44;1.00;99.90
11812;DHT22;5963;50.184;9.162;2022-11-20T00:30:13;1.00;99.90
11812;DHT22;5963;50.184;9.162;2022-11-20T00:32:43;1.10;99.90
11812;DHT22;5963;50.184;9.162;2022-11-20T00:35:13;1.10;99.90
11812;DHT22;5963;50.184;9.162;2022-11-20T00:37:44;1.10;99.90
11812;DHT22;5963;50.184;9.162;2022-11-20T00:40:14;1.10;99.90
11812;DHT22;5963;50.184;9.162;2022-11-20T00:42:44;1.20;99.90
11812;DHT22;5963;50.184;9.162;2022-11-20T00:45:13;1.20;99.90
11812;DHT22;5963;50.184;9.162;2022-11-20T00:47:43;1.20;99.90
11812;DHT22;5963;50.184;9.162;2022-11-20T00:50:13;1.10;99.90
11812;DHT22;5963;50.184;9.162;2022-11-20T00:52:44;1.20;99.90
11812;DHT22;5963;50.184;9.162;2022-11-20T00:55:14;1.20;99.90
11812;DHT22;5963;50.184;9.162;2022-11-20T00:57:43;1.10;99.90
11812;DHT22;5963;50.184;9.162;2022-11-20T01:00:12;1.10;99.90
11812;DHT22;5963;50.184;9.162;2022-11-20T01:02:42;1.20;99.90
11812;DHT22;5963;50.184;9.162;2022-11-20T01:05:13;1.20;99.90
11812;DHT22;5963;50.184;9.162;2022-11-20T01:07:44;1.20;99.90
11812;DHT22;5963;50.184;9.162;2022-11-20T01:10:13;1.00;99.90
11812;DHT22;5963;50.184;9.162;2022-11-20T01:12:43;0.90;99.90
11812;DHT22;5963;50.184;9.162;2022-11-20T01:15:35;1.00;99.90
11812;DHT22;5963;50.184;9.162;2022-11-20T01:18:05;1.00;99.90
11812;DHT22;5963;50.184;9.162;2022-11-20T01:20:36;1.00;99.90
11812;DHT22;5963;50.184;9.162;2022-11-20T01:23:09;0.90;99.90
11812;DHT22;5963;50.184;9.162;2022-11-20T01:25:37;0.90;99.90
11812;DHT22;5963;50.184;9.162;2022-11-20T01:28:07;0.90;99.90
11812;DHT22;5963;50.184;9.162;2022-11-20T01:30:35;1.00;99.90
11812;DHT22;5963;50.184;9.162;2022-11-20T01:33:05;0.80;99.90
11812;DHT22;5963;50.184;9.162;2022-11-20T01:35:35;0.90;99.90
11812;DHT22;5963;50.184;9.162;2022-11-20T01:38:04;0.90;99.90
11812;DHT22;5963;50.184;9.162;2022-11-20T01:40:36;0.90;99.90
11812;DHT22;5963;50.184;9.162;2022-11-20T01:43:12;0.80;99.90
11812;DHT22;5963;50.184;9.162;2022-11-20T01:45:58;1.00;99.90
11812;DHT22;5963;50.184;9.162;2022-11-20T01:48:30;1.10;99.90
11812;DHT22;5963;50.184;9.162;2022-11-20T01:51:02;1.00;99.90
11812;DHT22;5963;50.184;9.162;2022-11-20T01:53:35;1.00;99.90
11812;DHT22;5963;50.184;9.162;2022-11-20T01:56:09;1.00;99.90
11812;DHT22;5963;50.184;9.162;2022-11-20T01:58:42;1.00;99.90
11812;DHT22;5963;50.184;9.162;2022-11-20T02:01:15;1.10;99.90
11812;DHT22;5963;50.184;9.162;2022-11-20T02:03:45;1.10;99.90
11812;DHT22;5963;50.184;9.162;2022-11-20T02:06:19;1.00;99.90
11812;DHT22;5963;50.184;9.162;2022-11-20T02:08:51;1.00;99.90
11812;DHT22;5963;50.184;9.162;2022-11-20T02:11:23;1.00;99.90
11812;DHT22;5963;50.184;9.162;2022-11-20T02:13:53;1.20;99.90
11812;DHT22;5963;50.184;9.162;2022-11-20T02:16:25;1.20;99.90
11812;DHT22;5963;50.184;9.162;2022-11-20T02:18:58;1.10;99.90
11812;DHT22;5963;50.184;9.162;2022-11-20T02:21:33;1.20;99.90
11812;DHT22;5963;50.184;9.162;2022-11-20T02:24:09;1.20;99.90
11812;DHT22;5963;50.184;9.162;2022-11-20T02:26:43;1.10;99.90
11812;DHT22;5963;50.184;9.162;2022-11-20T02:29:13;1.00;99.90
11812;DHT22;5963;50.184;9.162;2022-11-20T02:31:45;0.90;99.90
11812;DHT22;5963;50.184;9.162;2022-11-20T02:34:17;0.80;99.90
11812;DHT22;5963;50.184;9.162;2022-11-20T02:36:48;0.90;99.90
11812;DHT22;5963;50.184;9.162;2022-11-20T02:39:21;0.90;99.90
11812;DHT22;5963;50.184;9.162;2022-11-20T02:41:54;0.80;99.90
11812;DHT22;5963;50.184;9.162;2022-11-20T02:44:23;0.80;99.90
11812;DHT22;5963;50.184;9.162;2022-11-20T02:46:53;0.90;99.90
11812;DHT22;5963;50.184;9.162;2022-11-20T02:49:21;0.80;99.90
11812;DHT22;5963;50.184;9.162;2022-11-20T02:51:52;0.90;99.90
11812;DHT22;5963;50.184;9.162;2022-11-20T02:54:23;0.80;99.90
11812;DHT22;5963;50.184;9.162;2022-11-20T02:56:53;0.80;99.90
11812;DHT22;5963;50.184;9.162;2022-11-20T02:59:23;0.80;99.90
11812;DHT22;5963;50.184;9.162;2022-11-20T03:01:52;0.80;99.90
11812;DHT22;5963;50.184;9.162;2022-11-20T03:04:22;0.70;99.90
11812;DHT22;5963;50.184;9.162;2022-11-20T03:06:52;0.80;99.90
11812;DHT22;5963;50.184;9.162;2022-11-20T03:09:24;0.90;99.90
11812;DHT22;5963;50.184;9.162;2022-11-20T03:11:54;1.00;99.90
11812;DHT22;5963;50.184;9.162;2022-11-20T03:14:24;1.00;99.90
11812;DHT22;5963;50.184;9.162;2022-11-20T03:16:54;0.90;99.90
11812;DHT22;5963;50.184;9.162;2022-11-20T03:19:24;0.90;99.90
11812;DHT22;5963;50.184;9.162;2022-11-20T03:21:53;0.90;99.90
11812;DHT22;5963;50.184;9.162;2022-11-20T03:24:25;0.90;99.90
11812;DHT22;5963;50.184;9.162;2022-11-20T03:26:55;1.00;99.90
11812;DHT22;5963;50.184;9.162;2022-11-20T03:29:24;1.10;99.90
11812;DHT22;5963;50.184;9.162;2022-11-20T03:31:54;1.10;99.90
11812;DHT22;5963;50.184;9.162;2022-11-20T03:34:24;0.90;99.90
11812;DHT22;5963;50.184;9.162;2022-11-20T03:36:54;1.00;99.90
11812;DHT22;5963;50.184;9.162;2022-11-20T03:39:25;1.10;99.90
11812;DHT22;5963;50.184;9.162;2022-11-20T03:41:54;1.00;99.90
11812;DHT22;5963;50.184;9.162;2022-11-20T03:44:24;0.90;99.90
11812;DHT22;5963;50.184;9.162;2022-11-20T03:46:54;0.90;99.90
11812;DHT22;5963;50.184;9.162;2022-11-20T03:49:24;0.80;99.90
11812;DHT22;5963;50.184;9.162;2022-11-20T03:51:53;0.90;99.90
11812;DHT22;5963;50.184;9.162;2022-11-20T03:54:24;0.90;99.90
11812;DHT22;5963;50.184;9.162;2022-11-20T03:56:54;1.00;99.90
11812;DHT22;5963;50.184;9.162;2022-11-20T03:59:24;1.00;99.90
11812;DHT22;5963;50.184;9.162;2022-11-20T04:01:54;0.90;99.90
11812;DHT22;5963;50.184;9.162;2022-11-20T04:04:25;0.80;99.90
11812;DHT22;5963;50.184;9.162;2022-11-20T04:06:55;0.70;99.90
11812;DHT22;5963;50.184;9.162;2022-11-20T04:09:26;0.80;99.90
11812;DHT22;5963;50.184;9.162;2022-11-20T04:11:56;0.70;99.90
11812;DHT22;5963;50.184;9.162;2022-11-20T04:14:26;0.80;99.90
11812;DHT22;5963;50.184;9.162;2022-11-20T04:16:53;0.80;99.90
11812;DHT22;5963;50.184;9.162;2022-11-20T04:19:23;0.90;99.90
11812;DHT22;5963;50.184;9.162;2022-11-20T04:21:53;0.90;99.90
11812;DHT22;5963;50.184;9.162;2022-11-20T04:24:23;1.00;99.90
11812;DHT22;5963;50.184;9.162;2022-11-20T04:26:54;0.90;99.90
11812;DHT22;5963;50.184;9.162;2022-11-20T04:29:23;0.90;99.90
11812;DHT22;5963;50.184;9.162;2022-11-20T04:31:53;0.90;99.90
11812;DHT22;5963;50.184;9.162;2022-11-20T04:34:21;1.00;99.90
11812;DHT22;5963;50.184;9.162;2022-11-20T04:36:51;1.00;99.90
11812;DHT22;5963;50.184;9.162;2022-11-20T04:39:21;0.80;99.90
11812;DHT22;5963;50.184;9.162;2022-11-20T04:41:51;0.70;99.90
11812;DHT22;5963;50.184;9.162;2022-11-20T04:44:42;0.70;99.90
11812;DHT22;5963;50.184;9.162;2022-11-20T04:47:12;0.80;99.90
11812;DHT22;5963;50.184;9.162;2022-11-20T04:49:42;0.70;99.90
11812;DHT22;5963;50.184;9.162;2022-11-20T04:52:12;0.70;99.90
11812;DHT22;5963;50.184;9.162;2022-11-20T04:54:42;0.70;99.90
11812;DHT22;5963;50.184;9.162;2022-11-20T04:57:12;0.70;99.90
11812;DHT22;5963;50.184;9.162;2022-11-20T04:59:43;0.80;99.90
11812;DHT22;5963;50.184;9.162;2022-11-20T05:02:13;0.80;99.90
11812;DHT22;5963;50.184;9.162;2022-11-20T05:04:43;0.80;99.90
11812;DHT22;5963;50.184;9.162;2022-11-20T05:07:13;0.90;99.90
11812;DHT22;5963;50.184;9.162;2022-11-20T05:09:43;0.90;99.90
11812;DHT22;5963;50.184;9.162;2022-11-20T05:12:12;0.80;99.90
11812;DHT22;5963;50.184;9.162;2022-11-20T05:14:43;0.80;99.90
11812;DHT22;5963;50.184;9.162;2022-11-20T05:17:13;0.80;99.90
11812;DHT22;5963;50.184;9.162;2022-11-20T05:19:43;0.70;99.90
11812;DHT22;5963;50.184;9.162;2022-11-20T05:22:19;0.80;99.90
11812;DHT22;5963;50.184;9.162;2022-11-20T05:24:49;0.80;99.90
11812;DHT22;5963;50.184;9.162;2022-11-20T05:27:18;0.80;99.90
11812;DHT22;5963;50.184;9.162;2022-11-20T05:29:49;0.80;99.90
11812;DHT22;5963;50.184;9.162;2022-11-20T05:32:19;0.90;99.90
11812;DHT22;5963;50.184;9.162;2022-11-20T05:34:49;1.00;99.90
11812;DHT22;5963;50.184;9.162;2022-11-20T05:37:18;1.00;99.90
11812;DHT22;5963;50.184;9.162;2022-11-20T05:39:48;1.00;99.90
11812;DHT22;5963;50.184;9.162;2022-11-20T05:42:18;1.00;99.90
11812;DHT22;5963;50.184;9.162;2022-11-20T05:45:03;0.90;99.90
11812;DHT22;5963;50.184;9.162;2022-11-20T05:47:33;0.90;99.90
11812;DHT22;5963;50.184;9.162;2022-11-20T05:50:03;1.00;99.90
11812;DHT22;5963;50.184;9.162;2022-11-20T05:52:33;1.10;99.90
11812;DHT22;5963;50.184;9.162;2022-11-20T05:55:03;1.00;99.90
11812;DHT22;5963;50.184;9.162;2022-11-20T05:57:33;0.90;99.90
11812;DHT22;5963;50.184;9.162;2022-11-20T06:00:05;0.90;99.90
11812;DHT22;5963;50.184;9.162;2022-11-20T06:02:36;0.90;99.90
11812;DHT22;5963;50.184;9.162;2022-11-20T06:05:07;0.90;99.90
11812;DHT22;5963;50.184;9.162;2022-11-20T06:07:37;0.90;99.90
11812;DHT22;5963;50.184;9.162;2022-11-20T06:10:07;1.00;99.90
11812;DHT22;5963;50.184;9.162;2022-11-20T06:12:37;1.00;99.90
11812;DHT22;5963;50.184;9.162;2022-11-20T06:15:10;1.00;99.90
11812;DHT22;5963;50.184;9.162;2022-11-20T06:17:39;1.00;99.90
11812;DHT22;5963;50.184;9.162;2022-11-20T06:20:11;0.90;99.90
11812;DHT22;5963;50.184;9.162;2022-11-20T06:22:41;0.90;99.90
11812;DHT22;5963;50.184;9.162;2022-11-20T06:25:10;1.00;99.90
11812;DHT22;5963;50.184;9.162;2022-11-20T06:27:40;1.20;99.90
11812;DHT22;5963;50.184;9.162;2022-11-20T06:30:11;1.30;99.90
11812;DHT22;5963;50.184;9.162;2022-11-20T06:32:41;1.30;99.90
11812;DHT22;5963;50.184;9.162;2022-11-20T06:35:11;1.30;99.90
11812;DHT22;5963;50.184;9.162;2022-11-20T06:37:41;1.40;99.90
11812;DHT22;5963;50.184;9.162;2022-11-20T06:40:13;1.50;99.90
11812;DHT22;5963;50.184;9.162;2022-11-20T06:42:42;1.50;99.90
11812;DHT22;5963;50.184;9.162;2022-11-20T06:45:14;1.50;99.90
11812;DHT22;5963;50.184;9.162;2022-11-20T06:47:43;1.40;99.90
11812;DHT22;5963;50.184;9.162;2022-11-20T06:52:41;1.60;99.90
11812;DHT22;5963;50.184;9.162;2022-11-20T06:55:11;1.50;99.90
11812;DHT22;5963;50.184;9.162;2022-11-20T06:57:41;1.30;99.90
11812;DHT22;5963;50.184;9.162;2022-11-20T07:00:10;1.30;99.90
11812;DHT22;5963;50.184;9.162;2022-11-20T07:02:41;1.30;99.90
11812;DHT22;5963;50.184;9.162;2022-11-20T07:05:11;1.20;99.90
11812;DHT22;5963;50.184;9.162;2022-11-20T07:07:41;1.20;99.90
11812;DHT22;5963;50.184;9.162;2022-11-20T07:10:11;1.10;99.90
11812;DHT22;5963;50.184;9.162;2022-11-20T07:12:41;1.20;99.90
11812;DHT22;5963;50.184;9.162;2022-11-20T07:15:11;1.30;99.90
11812;DHT22;5963;50.184;9.162;2022-11-20T07:17:42;1.30;99.90
11812;DHT22;5963;50.184;9.162;2022-11-20T07:22:41;1.30;99.90
11812;DHT22;5963;50.184;9.162;2022-11-20T07:25:11;1.20;99.90
11812;DHT22;5963;50.184;9.162;2022-11-20T07:27:41;1.20;99.90
11812;DHT22;5963;50.184;9.162;2022-11-20T07:32:43;1.20;99.90
11812;DHT22;5963;50.184;9.162;2022-11-20T07:35:15;1.20;99.90
11812;DHT22;5963;50.184;9.162;2022-11-20T07:37:45;1.10;99.90
11812;DHT22;5963;50.184;9.162;2022-11-20T07:40:15;1.20;99.90
11812;DHT22;5963;50.184;9.162;2022-11-20T07:42:49;1.20;99.90
11812;DHT22;5963;50.184;9.162;2022-11-20T07:45:19;1.20;99.90
11812;DHT22;5963;50.184;9.162;2022-11-20T07:47:51;1.20;99.90
11812;DHT22;5963;50.184;9.162;2022-11-20T07:50:21;1.30;99.90
11812;DHT22;5963;50.184;9.162;2022-11-20T07:52:51;1.20;99.90
11812;DHT22;5963;50.184;9.162;2022-11-20T07:55:21;1.30;99.90
11812;DHT22;5963;50.184;9.162;2022-11-20T07:57:55;1.30;99.90
11812;DHT22;5963;50.184;9.162;2022-11-20T08:00:26;1.50;99.90
11812;DHT22;5963;50.184;9.162;2022-11-20T08:02:57;1.60;99.90
11812;DHT22;5963;50.184;9.162;2022-11-20T08:05:27;1.60;99.90
11812;DHT22;5963;50.184;9.162;2022-11-20T08:07:57;1.50;99.90
11812;DHT22;5963;50.184;9.162;2022-11-20T08:10:27;1.50;99.90
11812;DHT22;5963;50.184;9.162;2022-11-20T08:12:56;1.50;99.90
11812;DHT22;5963;50.184;9.162;2022-11-20T08:15:50;1.50;99.90
11812;DHT22;5963;50.184;9.162;2022-11-20T08:18:21;1.60;99.90
11812;DHT22;5963;50.184;9.162;2022-11-20T08:21:00;1.70;99.90
11812;DHT22;5963;50.184;9.162;2022-11-20T08:23:30;1.70;99.90
11812;DHT22;5963;50.184;9.162;2022-11-20T08:26:00;1.70;99.90
11812;DHT22;5963;50.184;9.162;2022-11-20T08:28:30;1.70;99.90
11812;DHT22;5963;50.184;9.162;2022-11-20T08:31:01;1.90;99.90
11812;DHT22;5963;50.184;9.162;2022-11-20T08:33:32;2.10;99.90
11812;DHT22;5963;50.184;9.162;2022-11-20T08:36:02;2.10;99.90
11812;DHT22;5963;50.184;9.162;2022-11-20T08:38:33;2.20;99.90
11812;DHT22;5963;50.184;9.162;2022-11-20T08:41:04;2.30;99.90
11812;DHT22;5963;50.184;9.162;2022-11-20T08:43:55;2.30;99.90
11812;DHT22;5963;50.184;9.162;2022-11-20T08:46:26;2.50;99.90
11812;DHT22;5963;50.184;9.162;2022-11-20T08:48:57;2.40;99.90
11812;DHT22;5963;50.184;9.162;2022-11-20T08:51:27;2.60;99.90
11812;DHT22;5963;50.184;9.162;2022-11-20T08:53:57;2.60;99.90
11812;DHT22;5963;50.184;9.162;2022-11-20T08:56:27;2.60;99.90
11812;DHT22;5963;50.184;9.162;2022-11-20T08:58:56;2.50;99.90
11812;DHT22;5963;50.184;9.162;2022-11-20T09:01:47;2.40;99.90
11812;DHT22;5963;50.184;9.162;2022-11-20T09:04:18;2.50;99.90
11812;DHT22;5963;50.184;9.162;2022-11-20T09:06:48;2.60;99.90
11812;DHT22;5963;50.184;9.162;2022-11-20T09:09:19;2.70;99.90
11812;DHT22;5963;50.184;9.162;2022-11-20T09:11:49;2.80;99.90
11812;DHT22;5963;50.184;9.162;2022-11-20T09:14:19;2.70;99.90
11812;DHT22;5963;50.184;9.162;2022-11-20T09:16:47;2.70;99.90
11812;DHT22;5963;50.184;9.162;2022-11-20T09:19:19;2.70;99.90
11812;DHT22;5963;50.184;9.162;2022-11-20T09:22:08;2.90;99.90
11812;DHT22;5963;50.184;9.162;2022-11-20T09:24:38;3.00;99.90
11812;DHT22;5963;50.184;9.162;2022-11-20T09:27:08;3.00;99.90
11812;DHT22;5963;50.184;9.162;2022-11-20T09:29:37;3.00;99.90
11812;DHT22;5963;50.184;9.162;2022-11-20T09:32:07;3.00;99.90
11812;DHT22;5963;50.184;9.162;2022-11-20T09:34:38;3.00;99.90
11812;DHT22;5963;50.184;9.162;2022-11-20T09:37:08;2.90;99.90
11812;DHT22;5963;50.184;9.162;2022-11-20T09:39:38;2.60;99.90
11812;DHT22;5963;50.184;9.162;2022-11-20T09:42:25;2.60;99.90
11812;DHT22;5963;50.184;9.162;2022-11-20T09:48:10;2.80;99.90
11812;DHT22;5963;50.184;9.162;2022-11-20T09:50:45;2.90;99.90
11812;DHT22;5963;50.184;9.162;2022-11-20T09:53:23;3.00;99.90
11812;DHT22;5963;50.184;9.162;2022-11-20T09:55:54;3.00;99.90
11812;DHT22;5963;50.184;9.162;2022-11-20T09:58:31;3.00;99.90
11812;DHT22;5963;50.184;9.162;2022-11-20T10:01:08;3.00;99.90
11812;DHT22;5963;50.184;9.162;2022-11-20T10:03:45;2.90;99.90
11812;DHT22;5963;50.184;9.162;2022-11-20T10:06:22;2.80;99.90
11812;DHT22;5963;50.184;9.162;2022-11-20T10:08:58;2.80;99.90
11812;DHT22;5963;50.184;9.162;2022-11-20T10:11:35;2.80;99.90
11812;DHT22;5963;50.184;9.162;2022-11-20T10:14:18;3.00;99.90
11812;DHT22;5963;50.184;9.162;2022-11-20T10:16:55;2.80;99.90
11812;DHT22;5963;50.184;9.162;2022-11-20T10:19:35;3.00;99.90
11812;DHT22;5963;50.184;9.162;2022-11-20T10:22:14;3.10;99.90
11812;DHT22;5963;50.184;9.162;2022-11-20T10:24:51;3.20;99.90
11812;DHT22;5963;50.184;9.162;2022-11-20T10:27:50;3.20;99.90
11812;DHT22;5963;50.184;9.162;2022-11-20T10:30:24;3.20;99.90
11812;DHT22;5963;50.184;9.162;2022-11-20T10:32:58;3.30;99.90
11812;DHT22;5963;50.184;9.162;2022-11-20T10:35:34;3.30;99.90
11812;DHT22;5963;50.184;9.162;2022-11-20T10:38:11;3.50;99.90
11812;DHT22;5963;50.184;9.162;2022-11-20T10:40:44;3.50;99.90
11812;DHT22;5963;50.184;9.162;2022-11-20T10:43:16;3.50;99.90
11812;DHT22;5963;50.184;9.162;2022-11-20T10:45:52;3.60;99.90
11812;DHT22;5963;50.184;9.162;2022-11-20T10:48:25;3.70;99.90
11812;DHT22;5963;50.184;9.162;2022-11-20T10:51:08;3.60;99.90
11812;DHT22;5963;50.184;9.162;2022-11-20T10:53:54;3.60;99.90
11812;DHT22;5963;50.184;9.162;2022-11-20T10:56:30;3.60;99.90
11812;DHT22;5963;50.184;9.162;2022-11-20T10:59:19;3.60;99.90
11812;DHT22;5963;50.184;9.162;2022-11-20T11:01:54;3.70;99.90
11812;DHT22;5963;50.184;9.162;2022-11-20T11:04:33;3.60;99.90
11812;DHT22;5963;50.184;9.162;2022-11-20T11:07:07;3.70;99.90
11812;DHT22;5963;50.184;9.162;2022-11-20T11:09:44;3.70;99.90
11812;DHT22;5963;50.184;9.162;2022-11-20T11:12:16;3.60;99.90
11812;DHT22;5963;50.184;9.162;2022-11-20T11:14:47;3.50;99.90
11812;DHT22;5963;50.184;9.162;2022-11-20T11:17:21;3.40;99.90
11812;DHT22;5963;50.184;9.162;2022-11-20T11:20:05;3.40;99.90
11812;DHT22;5963;50.184;9.162;2022-11-20T11:22:43;3.40;99.90
11812;DHT22;5963;50.184;9.162;2022-11-20T11:25:22;3.40;99.90
11812;DHT22;5963;50.184;9.162;2022-11-20T11:27:53;3.40;99.90
11812;DHT22;5963;50.184;9.162;2022-11-20T11:30:26;3.40;99.90
11812;DHT22;5963;50.184;9.162;2022-11-20T11:33:09;3.40;99.90
11812;DHT22;5963;50.184;9.162;2022-11-20T11:35:46;3.30;99.90
11812;DHT22;5963;50.184;9.162;2022-11-20T11:38:27;3.50;99.90
11812;DHT22;5963;50.184;9.162;2022-11-20T11:40:59;3.50;99.90
11812;DHT22;5963;50.184;9.162;2022-11-20T11:43:32;3.60;99.90
11812;DHT22;5963;50.184;9.162;2022-11-20T11:46:27;3.60;99.90
11812;DHT22;5963;50.184;9.162;2022-11-20T11:48:59;3.70;99.90
11812;DHT22;5963;50.184;9.162;2022-11-20T11:51:33;3.70;99.90
11812;DHT22;5963;50.184;9.162;2022-11-20T11:54:10;3.50;99.90
11812;DHT22;5963;50.184;9.162;2022-11-20T11:56:41;3.40;99.90
11812;DHT22;5963;50.184;9.162;2022-11-20T11:59:15;3.50;99.90
11812;DHT22;5963;50.184;9.162;2022-11-20T12:01:49;3.50;99.90
11812;DHT22;5963;50.184;9.162;2022-11-20T12:04:23;3.60;99.90
11812;DHT22;5963;50.184;9.162;2022-11-20T12:07:03;3.60;99.90
11812;DHT22;5963;50.184;9.162;2022-11-20T12:09:59;3.50;99.90
11812;DHT22;5963;50.184;9.162;2022-11-20T12:12:34;3.50;99.90
11812;DHT22;5963;50.184;9.162;2022-11-20T12:15:06;3.60;99.90
11812;DHT22;5963;50.184;9.162;2022-11-20T12:17:40;3.70;99.90
11812;DHT22;5963;50.184;9.162;2022-11-20T12:20:12;3.80;99.90
11812;DHT22;5963;50.184;9.162;2022-11-20T12:22:46;3.80;99.90
11812;DHT22;5963;50.184;9.162;2022-11-20T12:25:24;3.80;99.90
11812;DHT22;5963;50.184;9.162;2022-11-20T12:31:11;3.90;99.90
11812;DHT22;5963;50.184;9.162;2022-11-20T12:33:51;3.80;99.90
11812;DHT22;5963;50.184;9.162;2022-11-20T12:36:31;3.80;99.90
11812;DHT22;5963;50.184;9.162;2022-11-20T12:39:19;3.80;99.90
11812;DHT22;5963;50.184;9.162;2022-11-20T12:42:00;3.90;99.90
11812;DHT22;5963;50.184;9.162;2022-11-20T12:45:24;4.10;99.90
11812;DHT22;5963;50.184;9.162;2022-11-20T12:51:09;4.10;99.90
11812;DHT22;5963;50.184;9.162;2022-11-20T12:53:50;4.10;99.90
11812;DHT22;5963;50.184;9.162;2022-11-20T12:56:27;4.10;99.90
11812;DHT22;5963;50.184;9.162;2022-11-20T12:59:06;4.10;99.90
11812;DHT22;5963;50.184;9.162;2022-11-20T13:01:44;4.00;99.90
11812;DHT22;5963;50.184;9.162;2022-11-20T13:04:31;3.90;99.90
11812;DHT22;5963;50.184;9.162;2022-11-20T13:07:07;3.80;99.90
11812;DHT22;5963;50.184;9.162;2022-11-20T13:09:40;3.90;99.90
11812;DHT22;5963;50.184;9.162;2022-11-20T13:12:16;3.90;99.90
11812;DHT22;5963;50.184;9.162;2022-11-20T13:14:50;3.90;99.90
11812;DHT22;5963;50.184;9.162;2022-11-20T13:17:28;3.90;99.90
11812;DHT22;5963;50.184;9.162;2022-11-20T13:20:00;3.80;99.90
11812;DHT22;5963;50.184;9.162;2022-11-20T13:22:43;3.80;99.90
11812;DHT22;5963;50.184;9.162;2022-11-20T13:25:22;3.80;99.90
11812;DHT22;5963;50.184;9.162;2022-11-20T13:27:52;3.80;99.90
11812;DHT22;5963;50.184;9.162;2022-11-20T13:30:22;3.80;99.90
11812;DHT22;5963;50.184;9.162;2022-11-20T13:32:55;3.80;99.90
11812;DHT22;5963;50.184;9.162;2022-11-20T13:35:27;3.90;99.90
11812;DHT22;5963;50.184;9.162;2022-11-20T13:38:08;4.00;99.90
11812;DHT22;5963;50.184;9.162;2022-11-20T13:40:50;4.00;99.90
11812;DHT22;5963;50.184;9.162;2022-11-20T13:43:23;3.70;99.90
11812;DHT22;5963;50.184;9.162;2022-11-20T13:45:56;3.70;99.90
11812;DHT22;5963;50.184;9.162;2022-11-20T13:48:29;3.70;99.90
11812;DHT22;5963;50.184;9.162;2022-11-20T13:51:23;3.70;99.90
11812;DHT22;5963;50.184;9.162;2022-11-20T13:54:09;3.70;99.90
11812;DHT22;5963;50.184;9.162;2022-11-20T13:56:50;3.60;99.90
11812;DHT22;5963;50.184;9.162;2022-11-20T13:59:32;3.60;99.90
11812;DHT22;5963;50.184;9.162;2022-11-20T14:02:10;3.50;99.90
11812;DHT22;5963;50.184;9.162;2022-11-20T14:04:45;3.60;99.90
11812;DHT22;5963;50.184;9.162;2022-11-20T14:07:16;3.60;99.90
11812;DHT22;5963;50.184;9.162;2022-11-20T14:09:52;3.50;99.90
11812;DHT22;5963;50.184;9.162;2022-11-20T14:12:26;3.50;99.90
11812;DHT22;5963;50.184;9.162;2022-11-20T14:14:57;3.50;99.90
11812;DHT22;5963;50.184;9.162;2022-11-20T14:17:33;3.50;99.90
11812;DHT22;5963;50.184;9.162;2022-11-20T14:20:05;3.50;99.90
11812;DHT22;5963;50.184;9.162;2022-11-20T14:22:35;3.60;99.90
11812;DHT22;5963;50.184;9.162;2022-11-20T14:25:18;3.60;99.90
11812;DHT22;5963;50.184;9.162;2022-11-20T14:27:53;3.60;99.90
11812;DHT22;5963;50.184;9.162;2022-11-20T14:30:25;3.50;99.90
11812;DHT22;5963;50.184;9.162;2022-11-20T14:32:56;3.60;99.90
11812;DHT22;5963;50.184;9.162;2022-11-20T14:35:29;3.80;99.90
11812;DHT22;5963;50.184;9.162;2022-11-20T14:38:00;3.90;99.90
11812;DHT22;5963;50.184;9.162;2022-11-20T14:40:33;3.80;99.90
11812;DHT22;5963;50.184;9.162;2022-11-20T14:43:14;3.70;99.90
11812;DHT22;5963;50.184;9.162;2022-11-20T14:45:47;3.80;99.90
11812;DHT22;5963;50.184;9.162;2022-11-20T14:48:18;3.80;99.90
11812;DHT22;5963;50.184;9.162;2022-11-20T14:50:49;3.70;99.90
11812;DHT22;5963;50.184;9.162;2022-11-20T14:53:24;3.80;99.90
11812;DHT22;5963;50.184;9.162;2022-11-20T14:55:59;3.80;99.90
11812;DHT22;5963;50.184;9.162;2022-11-20T14:58:31;3.70;99.90
11812;DHT22;5963;50.184;9.162;2022-11-20T15:01:03;3.50;99.90
11812;DHT22;5963;50.184;9.162;2022-11-20T15:03:34;3.60;99.90
11812;DHT22;5963;50.184;9.162;2022-11-20T15:06:07;3.50;99.90
11812;DHT22;5963;50.184;9.162;2022-11-20T15:08:37;3.40;99.90
11812;DHT22;5963;50.184;9.162;2022-11-20T15:11:19;3.30;99.90
11812;DHT22;5963;50.184;9.162;2022-11-20T15:13:49;3.30;99.90
11812;DHT22;5963;50.184;9.162;2022-11-20T15:16:20;3.30;99.90
11812;DHT22;5963;50.184;9.162;2022-11-20T15:18:50;3.20;99.90
11812;DHT22;5963;50.184;9.162;2022-11-20T15:21:22;3.20;99.90
11812;DHT22;5963;50.184;9.162;2022-11-20T15:23:52;3.10;99.90
11812;DHT22;5963;50.184;9.162;2022-11-20T15:26:26;3.10;99.90
11812;DHT22;5963;50.184;9.162;2022-11-20T15:28:56;3.10;99.90
11812;DHT22;5963;50.184;9.162;2022-11-20T15:31:26;3.10;99.90
11812;DHT22;5963;50.184;9.162;2022-11-20T15:33:55;3.20;99.90
11812;DHT22;5963;50.184;9.162;2022-11-20T15:36:27;3.30;99.90
11812;DHT22;5963;50.184;9.162;2022-11-20T15:38:57;3.30;99.90
11812;DHT22;5963;50.184;9.162;2022-11-20T15:41:27;3.40;99.90
11812;DHT22;5963;50.184;9.162;2022-11-20T15:43:57;3.50;99.90
11812;DHT22;5963;50.184;9.162;2022-11-20T15:46:29;3.50;99.90
11812;DHT22;5963;50.184;9.162;2022-11-20T15:49:01;3.50;99.90
11812;DHT22;5963;50.184;9.162;2022-11-20T15:51:34;3.50;99.90
11812;DHT22;5963;50.184;9.162;2022-11-20T15:54:11;3.30;99.90
11812;DHT22;5963;50.184;9.162;2022-11-20T15:56:41;3.30;99.90
11812;DHT22;5963;50.184;9.162;2022-11-20T15:59:11;3.20;99.90
11812;DHT22;5963;50.184;9.162;2022-11-20T16:01:42;3.20;99.90
11812;DHT22;5963;50.184;9.162;2022-11-20T16:04:13;3.20;99.90
11812;DHT22;5963;50.184;9.162;2022-11-20T16:06:45;3.20;99.90
11812;DHT22;5963;50.184;9.162;2022-11-20T16:09:15;3.10;99.90
11812;DHT22;5963;50.184;9.162;2022-11-20T16:11:44;3.10;99.90
11812;DHT22;5963;50.184;9.162;2022-11-20T16:14:14;3.10;99.90
11812;DHT22;5963;50.184;9.162;2022-11-20T16:17:02;3.20;99.90
11812;DHT22;5963;50.184;9.162;2022-11-20T16:19:32;3.10;99.90
11812;DHT22;5963;50.184;9.162;2022-11-20T16:22:03;3.10;99.90
11812;DHT22;5963;50.184;9.162;2022-11-20T16:24:32;3.20;99.90
11812;DHT22;5963;50.184;9.162;2022-11-20T16:27:02;3.30;99.90
11812;DHT22;5963;50.184;9.162;2022-11-20T16:29:32;3.20;99.90
11812;DHT22;5963;50.184;9.162;2022-11-20T16:32:02;3.30;99.90
11812;DHT22;5963;50.184;9.162;2022-11-20T16:34:32;3.20;99.90
11812;DHT22;5963;50.184;9.162;2022-11-20T16:37:03;3.30;99.90
11812;DHT22;5963;50.184;9.162;2022-11-20T16:39:33;3.30;99.90
11812;DHT22;5963;50.184;9.162;2022-11-20T16:42:05;3.40;99.90
11812;DHT22;5963;50.184;9.162;2022-11-20T16:44:34;3.30;99.90
11812;DHT22;5963;50.184;9.162;2022-11-20T16:47:04;3.30;99.90
11812;DHT22;5963;50.184;9.162;2022-11-20T16:49:34;3.20;99.90
11812;DHT22;5963;50.184;9.162;2022-11-20T16:52:05;3.10;99.90
11812;DHT22;5963;50.184;9.162;2022-11-20T16:54:35;3.10;99.90